Terminal Aerodrome Forecast
Issued by NWS

Current Version | Previous Version | Graphics & Text | Print | Product List | Glossary On
Versions: 1 2 3 4 5 6 7 8 9 10 11 12 13 14 15 16 17 18 19 20 21 22 23 24 25 26 27 28 29 30 31 32 33 34 35 36 37 38 39 40 41 42 43 44 45 46 47 48 49 50
000
FTUS41 KRNK 212320
TAFLWB
TAF
KLWB 212320Z 2200/2224 VRB03KT 6SM -RA SCT025 OVC040
     FM220300 00000KT 2SM BR SCT001 OVC025
     FM220500 VRB03KT 5SM -SHRA OVC015
     FM220700 00000KT 1/2SM FG OVC001
     FM221400 26006KT P6SM BKN025=

USA.gov is the U.S. government's official web portal to all federal, state and local government web resources and services.